createdAt,value
2016-04-02T00:00:15.423Z,0
2016-04-02T00:01:01.802Z,0
2016-04-02T00:02:01.898Z,0
2016-04-02T00:03:01.807Z,0
2016-04-02T00:04:01.872Z,0
2016-04-02T00:05:02.187Z,0
2016-04-02T00:06:01.643Z,0
2016-04-02T00:07:15.849Z,0
2016-04-02T00:08:01.585Z,0
2016-04-02T00:09:02.979Z,0
2016-04-02T00:10:01.809Z,0
2016-04-02T00:11:03.110Z,0
2016-04-02T00:12:02.346Z,0
2016-04-02T00:13:01.553Z,0
2016-04-02T00:14:01.431Z,0
2016-04-02T00:15:01.558Z,0
2016-04-02T00:16:02.592Z,0
2016-04-02T00:17:01.876Z,0
2016-04-02T00:18:01.784Z,0
2016-04-02T00:19:02.506Z,0
2016-04-02T00:20:02.867Z,0
2016-04-02T00:21:02.184Z,0
2016-04-02T00:22:01.623Z,0
2016-04-02T00:23:01.517Z,0
2016-04-02T00:24:01.176Z,0
2016-04-02T00:25:01.319Z,0
2016-04-02T00:26:01.072Z,0
2016-04-02T00:27:01.169Z,0
2016-04-02T00:28:01.140Z,0
2016-04-02T00:29:01.392Z,0
2016-04-02T00:31:01.007Z,0
2016-04-02T00:32:00.963Z,0
2016-04-02T00:33:00.934Z,0
2016-04-02T00:34:00.765Z,0
2016-04-02T00:35:01.190Z,0
2016-04-02T00:36:00.807Z,0
2016-04-02T00:37:00.903Z,0
2016-04-02T00:38:00.749Z,0
2016-04-02T00:39:00.831Z,0
2016-04-02T00:40:00.879Z,0
2016-04-02T00:41:01.024Z,0
2016-04-02T00:42:00.948Z,0
2016-04-02T00:43:00.684Z,0
2016-04-02T00:44:00.704Z,0
2016-04-02T00:45:00.690Z,0
2016-04-02T00:46:00.615Z,0
2016-04-02T00:47:00.883Z,0
2016-04-02T00:48:00.605Z,0
2016-04-02T00:49:00.389Z,0
2016-04-02T00:50:00.547Z,0
2016-04-02T00:51:00.488Z,0
2016-04-02T00:52:00.428Z,0
2016-04-02T00:53:00.680Z,0
2016-04-02T00:54:00.449Z,0
2016-04-02T00:55:00.405Z,0
2016-04-02T00:56:00.469Z,0
2016-04-02T00:57:00.254Z,0
2016-04-02T00:58:00.240Z,0
2016-04-02T00:59:00.510Z,0
2016-04-02T01:00:14.183Z,0
2016-04-02T01:01:00.265Z,0
2016-04-02T01:02:00.174Z,0
2016-04-02T01:03:00.129Z,0
2016-04-02T01:04:00.179Z,0
2016-04-02T01:05:00.760Z,0
2016-04-02T01:06:00.138Z,0
2016-04-02T01:07:00.077Z,0
2016-04-02T01:08:00.064Z,0
2016-04-02T01:09:00.005Z,0
2016-04-02T01:09:59.946Z,0
2016-04-02T01:11:00.323Z,0
2016-04-02T01:12:00.045Z,0
2016-04-02T01:12:59.953Z,0
2016-04-02T01:13:59.815Z,0
2016-04-02T01:15:00.192Z,0
2016-04-02T01:15:59.852Z,0
2016-04-02T01:17:00.229Z,0
2016-04-02T01:17:59.825Z,0
2016-04-02T01:18:59.953Z,0
2016-04-02T01:19:59.800Z,0
2016-04-02T01:20:59.897Z,0
2016-04-02T01:21:59.743Z,0
2016-04-02T01:23:00.309Z,0
2016-04-02T01:23:59.764Z,0
2016-04-02T01:25:01.235Z,0
2016-04-02T01:26:00.816Z,0
2016-04-02T01:26:59.788Z,0
2016-04-02T01:28:00.009Z,0
2016-04-02T01:29:00.731Z,0
2016-04-02T01:29:59.468Z,0
2016-04-02T01:31:00.049Z,0
2016-04-02T01:32:00.099Z,0
2016-04-02T01:32:59.757Z,0
2016-04-02T01:34:00.088Z,0
2016-04-02T01:34:59.982Z,0
2016-04-02T01:36:01.718Z,0
2016-04-02T01:37:00.127Z,0
2016-04-02T01:37:59.865Z,0
2016-04-02T01:38:59.960Z,0
2016-04-02T01:39:59.698Z,0
2016-04-02T01:40:59.826Z,0
2016-04-02T01:41:59.406Z,0
2016-04-02T01:42:59.096Z,0
2016-04-02T01:43:59.099Z,0
2016-04-02T01:45:00.383Z,0
2016-04-02T01:45:59.120Z,0
2016-04-02T01:46:59.560Z,0
2016-04-02T01:47:59.891Z,0
2016-04-02T01:48:59.409Z,0
2016-04-02T01:49:59.614Z,0
2016-04-02T01:50:59.258Z,0
2016-04-02T01:51:59.042Z,0
2016-04-02T01:52:58.217Z,0
2016-04-02T01:53:59.375Z,0
2016-04-02T01:54:58.863Z,0
2016-04-02T01:55:58.827Z,0
2016-04-02T01:56:59.115Z,0
2016-04-02T01:57:58.747Z,0
2016-04-02T01:58:59.347Z,0
2016-04-02T01:59:59.838Z,0
2016-04-02T02:00:59.350Z,0
2016-04-02T02:01:59.614Z,0
2016-04-02T02:02:59.207Z,0
2016-04-02T02:03:58.613Z,0
2016-04-02T02:04:59.267Z,0
2016-04-02T02:05:59.110Z,0
2016-04-02T02:06:59.485Z,0
2016-04-02T02:07:58.564Z,0
2016-04-02T02:08:59.012Z,0
2016-04-02T02:09:58.763Z,0
2016-04-02T02:10:58.983Z,0
2016-04-02T02:11:58.375Z,0
2016-04-02T02:12:58.581Z,0
2016-04-02T02:13:58.568Z,0
2016-04-02T02:14:58.781Z,0
2016-04-02T02:15:59.471Z,0
2016-04-02T02:16:58.818Z,0
2016-04-02T02:17:58.679Z,0
2016-04-02T02:18:58.603Z,0
2016-04-02T02:19:58.902Z,0
2016-04-02T02:20:58.264Z,0
2016-04-02T02:21:58.048Z,0
2016-04-02T02:22:58.706Z,0
2016-04-02T02:23:58.412Z,0
2016-04-02T02:24:58.165Z,0
2016-04-02T02:25:58.198Z,0
2016-04-02T02:26:58.561Z,0
2016-04-02T02:27:58.190Z,0
2016-04-02T02:28:58.442Z,0
2016-04-02T02:29:58.070Z,0
2016-04-02T02:30:58.275Z,0
2016-04-02T02:31:57.809Z,0
2016-04-02T02:32:57.890Z,0
2016-04-02T02:33:58.065Z,0
2016-04-02T02:34:58.037Z,0
2016-04-02T02:35:58.226Z,0
2016-04-02T02:36:57.792Z,0
2016-04-02T02:37:58.592Z,0
2016-04-02T02:38:58.141Z,0
2016-04-02T02:39:57.691Z,0
2016-04-02T02:40:58.693Z,0
2016-04-02T02:41:57.743Z,0
2016-04-02T02:42:57.792Z,0
2016-04-02T02:43:57.608Z,0
2016-04-02T02:44:57.923Z,0
2016-04-02T02:45:58.113Z,0
2016-04-02T02:46:57.741Z,0
2016-04-02T02:47:57.572Z,0
2016-04-02T02:48:56.933Z,0
2016-04-02T02:49:57.546Z,0
2016-04-02T02:50:57.907Z,0
2016-04-02T02:51:58.551Z,0
2016-04-02T02:52:58.054Z,0
2016-04-02T02:53:57.353Z,0
2016-04-02T02:54:57.887Z,0
2016-04-02T02:55:57.093Z,0
2016-04-02T02:56:57.596Z,0
2016-04-02T02:57:58.286Z,0
2016-04-02T02:58:58.148Z,0
2016-04-02T02:59:57.354Z,0
2016-04-02T03:00:57.059Z,0
2016-04-02T03:01:57.406Z,0
2016-04-02T03:02:57.471Z,0
2016-04-02T03:03:57.067Z,0
2016-04-02T03:04:57.759Z,0
2016-04-02T03:05:56.979Z,0
2016-04-02T03:06:56.889Z,0
2016-04-02T03:07:57.001Z,0
2016-04-02T03:08:56.973Z,0
2016-04-02T03:09:56.912Z,0
2016-04-02T03:10:57.134Z,0
2016-04-02T03:11:57.120Z,0
2016-04-02T03:12:56.920Z,0
2016-04-02T03:13:56.720Z,0
2016-04-02T03:14:56.675Z,0
2016-04-02T03:15:57.147Z,0
2016-04-02T03:16:57.149Z,0
2016-04-02T03:17:57.386Z,0
2016-04-02T03:18:56.717Z,0
2016-04-02T03:19:57.361Z,0
2016-04-02T03:20:56.911Z,0
2016-04-02T03:21:56.569Z,0
2016-04-02T03:22:57.291Z,0
2016-04-02T03:23:57.043Z,0
2016-04-02T03:24:56.640Z,0
2016-04-02T03:25:56.799Z,0
2016-04-02T03:26:56.395Z,0
2016-04-02T03:27:56.382Z,0
2016-04-02T03:28:58.198Z,0
2016-04-02T03:29:56.919Z,0
2016-04-02T03:30:56.610Z,0
2016-04-02T03:31:56.549Z,0
2016-04-02T03:32:56.568Z,0
2016-04-02T03:33:56.429Z,0
2016-04-02T03:34:56.776Z,0
2016-04-02T03:35:56.123Z,0
2016-04-02T03:36:56.141Z,0
2016-04-02T03:37:56.050Z,0
2016-04-02T03:38:56.334Z,0
2016-04-02T03:39:56.305Z,0
2016-04-02T03:40:56.870Z,0
2016-04-02T03:41:56.623Z,0
2016-04-02T03:42:56.298Z,0
2016-04-02T03:43:56.098Z,0
2016-04-02T03:44:55.272Z,0
2016-04-02T03:45:56.556Z,0
2016-04-02T03:46:56.137Z,0
2016-04-02T03:47:56.217Z,0
2016-04-02T03:48:56.298Z,0
2016-04-02T03:49:55.941Z,0
2016-04-02T03:50:55.803Z,0
2016-04-02T03:51:56.212Z,0
2016-04-02T03:52:56.105Z,0
2016-04-02T03:53:55.796Z,0
2016-04-02T03:54:55.876Z,0
2016-04-02T03:55:55.816Z,0
2016-04-02T03:56:55.648Z,0
2016-04-02T03:57:56.151Z,0
2016-04-02T03:58:56.029Z,0
2016-04-02T03:59:55.484Z,0
2016-04-02T04:00:55.440Z,0
2016-04-02T04:01:56.176Z,0
2016-04-02T04:02:55.960Z,0
2016-04-02T04:03:56.151Z,0
2016-04-02T04:04:56.435Z,0
2016-04-02T04:05:55.454Z,0
2016-04-02T04:06:55.613Z,0
2016-04-02T04:07:55.740Z,0
2016-04-02T04:08:55.431Z,0
2016-04-02T04:09:55.246Z,0
2016-04-02T04:10:55.967Z,0
2016-04-02T04:11:55.392Z,0
2016-04-02T04:12:56.362Z,0
2016-04-02T04:13:55.631Z,0
2016-04-02T04:14:55.462Z,0
2016-04-02T04:15:54.730Z,0
2016-04-02T04:16:56.702Z,0
2016-04-02T04:17:55.657Z,0
2016-04-02T04:18:55.503Z,0
2016-04-02T04:19:55.506Z,0
2016-04-02T04:20:55.447Z,0
2016-04-02T04:21:55.216Z,0
2016-04-02T04:22:55.858Z,0
2016-04-02T04:23:55.502Z,0
2016-04-02T04:24:55.052Z,0
2016-04-02T04:25:55.272Z,0
2016-04-02T04:26:56.447Z,0
2016-04-02T04:27:55.590Z,0
2016-04-02T04:28:54.937Z,0
2016-04-02T04:29:55.439Z,0
2016-04-02T04:30:54.707Z,0
2016-04-02T04:31:54.663Z,0
2016-04-02T04:32:54.791Z,0
2016-04-02T04:33:54.731Z,0
2016-04-02T04:34:55.157Z,0
2016-04-02T04:35:54.956Z,0
2016-04-02T04:36:54.896Z,0
2016-04-02T04:37:54.571Z,0
2016-04-02T04:38:54.495Z,0
2016-04-02T04:39:54.529Z,0
2016-04-02T04:40:54.500Z,0
2016-04-02T04:41:55.065Z,0
2016-04-02T04:42:54.522Z,0
2016-04-02T04:43:54.525Z,0
2016-04-02T04:44:54.653Z,0
2016-04-02T04:45:54.967Z,0
2016-04-02T04:46:54.314Z,0
2016-04-02T04:47:54.895Z,0
2016-04-02T04:48:55.084Z,0
2016-04-02T04:49:54.775Z,0
2016-04-02T04:50:54.511Z,0
2016-04-02T04:51:55.030Z,0
2016-04-02T04:52:55.783Z,0
2016-04-02T04:53:55.426Z,0
2016-04-02T04:54:54.632Z,0
2016-04-02T04:55:54.557Z,0
2016-04-02T04:56:54.699Z,0
2016-04-02T04:57:54.641Z,0
2016-04-02T04:58:54.502Z,0
2016-04-02T04:59:54.333Z,0
2016-04-02T05:01:07.758Z,0
2016-04-02T05:01:54.104Z,0
2016-04-02T05:02:53.810Z,0
2016-04-02T05:03:54.046Z,0
2016-04-02T05:04:53.862Z,0
2016-04-02T05:05:54.068Z,0
2016-04-02T05:06:53.711Z,0
2016-04-02T05:07:53.698Z,0
2016-04-02T05:08:53.778Z,0
2016-04-02T05:09:53.640Z,0
2016-04-02T05:10:53.628Z,0
2016-04-02T05:11:53.849Z,0
2016-04-02T05:12:53.571Z,0
2016-04-02T05:13:53.526Z,0
2016-04-02T05:14:53.483Z,0
2016-04-02T05:15:53.486Z,0
2016-04-02T05:16:53.456Z,0
2016-04-02T05:17:53.912Z,0
2016-04-02T05:18:53.430Z,0
2016-04-02T05:19:53.480Z,0
2016-04-02T05:20:53.358Z,0
2016-04-02T05:21:53.611Z,0
2016-04-02T05:22:53.411Z,0
2016-04-02T05:23:53.617Z,0
2016-04-02T05:24:53.228Z,0
2016-04-02T05:25:53.216Z,0
2016-04-02T05:26:53.390Z,0
2016-04-02T05:27:53.158Z,0
2016-04-02T05:28:53.146Z,0
2016-04-02T05:29:53.444Z,0
2016-04-02T05:30:53.244Z,0
2016-04-02T05:31:53.059Z,0
2016-04-02T05:32:53.031Z,0
2016-04-02T05:33:53.565Z,0
2016-04-02T05:34:53.020Z,0
2016-04-02T05:35:53.257Z,0
2016-04-02T05:36:52.917Z,0
2016-04-02T05:37:52.951Z,0
2016-04-02T05:38:52.891Z,0
2016-04-02T05:39:52.925Z,0
2016-04-02T05:40:52.818Z,0
2016-04-02T05:41:53.117Z,0
2016-04-02T05:42:52.808Z,0
2016-04-02T05:43:52.764Z,0
2016-04-02T05:44:52.766Z,0
2016-04-02T05:45:52.831Z,0
2016-04-02T05:46:52.786Z,0
2016-04-02T05:47:52.992Z,0
2016-04-02T05:48:52.667Z,0
2016-04-02T05:49:52.592Z,0
2016-04-02T05:50:52.626Z,0
2016-04-02T05:51:52.551Z,0
2016-04-02T05:52:52.663Z,0
2016-04-02T05:53:52.806Z,0
2016-04-02T05:54:52.528Z,0
2016-04-02T05:55:52.483Z,0
2016-04-02T05:56:52.455Z,0
2016-04-02T05:57:52.457Z,0
2016-04-02T05:58:52.397Z,0
2016-04-02T05:59:52.619Z,0
2016-04-02T06:00:52.403Z,0
2016-04-02T06:01:52.328Z,0
2016-04-02T06:02:52.330Z,0
2016-04-02T06:03:52.255Z,0
2016-04-02T06:04:52.164Z,0
2016-04-02T06:05:52.635Z,0
2016-04-02T06:06:52.341Z,0
2016-04-02T06:07:52.093Z,0
2016-04-02T06:08:52.159Z,0
2016-04-02T06:09:52.115Z,0
2016-04-02T06:10:52.086Z,0
2016-04-02T06:11:52.448Z,5
2016-04-02T06:12:51.122Z,0
2016-04-02T06:13:52.016Z,0
2016-04-02T06:14:52.175Z,0
2016-04-02T06:15:52.287Z,0
2016-04-02T06:16:51.900Z,0
2016-04-02T06:17:52.137Z,0
2016-04-02T06:18:51.826Z,0
2016-04-02T06:19:51.814Z,0
2016-04-02T06:20:51.738Z,0
2016-04-02T06:21:52.100Z,0
2016-04-02T06:22:51.728Z,0
2016-04-02T06:23:52.089Z,0
2016-04-02T06:24:51.671Z,0
2016-04-02T06:25:51.657Z,0
2016-04-02T06:26:51.582Z,0
2016-04-02T06:27:51.616Z,0
2016-04-02T06:28:51.524Z,0
2016-04-02T06:29:51.902Z,0
2016-04-02T06:30:51.499Z,0
2016-04-02T06:31:51.485Z,0
2016-04-02T06:32:51.427Z,0
2016-04-02T06:33:51.398Z,0
2016-04-02T06:34:51.573Z,0
2016-04-02T06:35:51.700Z,0
2016-04-02T06:36:51.390Z,0
2016-04-02T06:37:51.346Z,0
2016-04-02T06:38:51.271Z,0
2016-04-02T06:39:51.321Z,0
2016-04-02T06:40:51.324Z,0
2016-04-02T06:41:51.545Z,0
2016-04-02T06:42:51.188Z,0
2016-04-02T06:43:51.207Z,0
2016-04-02T06:44:54.225Z,0
2016-04-02T06:45:51.134Z,0
2016-04-02T06:46:51.183Z,0
2016-04-02T06:47:51.358Z,0
2016-04-02T06:48:51.032Z,0
2016-04-02T06:49:50.988Z,0
2016-04-02T06:50:50.991Z,5
2016-04-02T06:51:51.071Z,5
2016-04-02T06:52:51.042Z,5
2016-04-02T06:53:51.624Z,5
2016-04-02T06:54:51.002Z,5
2016-04-02T06:55:50.989Z,5
2016-04-02T06:57:04.819Z,5
2016-04-02T06:57:50.947Z,5
2016-04-02T06:58:50.824Z,5
2016-04-02T06:59:51.108Z,5
2016-04-02T07:00:50.893Z,5
2016-04-02T07:01:50.801Z,5
2016-04-02T07:02:51.179Z,5
2016-04-02T07:03:50.665Z,5
2016-04-02T07:04:50.965Z,5
2016-04-02T07:05:50.952Z,10
2016-04-02T07:06:50.612Z,10
2016-04-02T07:07:50.629Z,10
2016-04-02T07:08:50.993Z,5
2016-04-02T07:09:50.526Z,5
2016-04-02T07:10:50.513Z,5
2016-04-02T07:11:50.844Z,5
2016-04-02T07:12:50.456Z,5
2016-04-02T07:13:50.365Z,5
2016-04-02T07:14:50.399Z,5
2016-04-02T07:15:50.370Z,5
2016-04-02T07:16:51.123Z,5
2016-04-02T07:17:50.751Z,5
2016-04-02T07:18:50.409Z,5
2016-04-02T07:19:50.647Z,5
2016-04-02T07:20:50.290Z,5
2016-04-02T07:21:50.699Z,5
2016-04-02T07:22:50.327Z,5
2016-04-02T07:23:50.439Z,5
2016-04-02T07:24:50.238Z,5
2016-04-02T07:25:50.163Z,5
2016-04-02T07:26:50.399Z,5
2016-04-02T07:27:50.480Z,5
2016-04-02T07:28:50.046Z,5
2016-04-02T07:29:50.330Z,5
2016-04-02T07:30:49.958Z,5
2016-04-02T07:31:49.960Z,5
2016-04-02T07:32:50.197Z,5
2016-04-02T07:33:49.856Z,5
2016-04-02T07:35:03.687Z,5
2016-04-02T07:35:50.127Z,5
2016-04-02T07:36:50.333Z,5
2016-04-02T07:37:49.788Z,5
2016-04-02T07:38:49.807Z,5
2016-04-02T07:39:49.793Z,5
2016-04-02T07:40:49.765Z,5
2016-04-02T07:41:50.237Z,5
2016-04-02T07:42:49.771Z,5
2016-04-02T07:43:49.696Z,5
2016-04-02T07:44:49.698Z,5
2016-04-02T07:45:49.810Z,5
2016-04-02T07:46:49.672Z,5
2016-04-02T07:47:50.034Z,5
2016-04-02T07:48:49.600Z,5
2016-04-02T07:49:49.477Z,5
2016-04-02T07:50:49.543Z,5
2016-04-02T07:51:49.670Z,5
2016-04-02T07:53:03.204Z,5
2016-04-02T07:53:49.786Z,5
2016-04-02T07:54:49.850Z,5
2016-04-02T07:55:49.353Z,5
2016-04-02T07:56:49.418Z,5
2016-04-02T07:57:49.296Z,5
2016-04-02T07:58:49.344Z,5
2016-04-02T07:59:49.613Z,5
2016-04-02T08:00:49.225Z,5
2016-04-02T08:01:49.572Z,5
2016-04-02T08:02:49.513Z,5
2016-04-02T08:03:49.313Z,5
2016-04-02T08:04:49.690Z,5
2016-04-02T08:05:49.521Z,5
2016-04-02T08:06:49.351Z,5
2016-04-02T08:07:48.557Z,5
2016-04-02T08:08:49.043Z,5
2016-04-02T08:09:49.156Z,5
2016-04-02T08:10:49.190Z,5
2016-04-02T08:11:49.411Z,5
2016-04-02T08:12:48.976Z,5
2016-04-02T08:13:48.901Z,5
2016-04-02T08:14:48.935Z,5
2016-04-02T08:15:49.032Z,5
2016-04-02T08:16:48.050Z,5
2016-04-02T08:17:49.178Z,5
2016-04-02T08:18:49.461Z,5
2016-04-02T08:19:48.823Z,5
2016-04-02T08:20:48.748Z,5
2016-04-02T08:21:48.923Z,5
2016-04-02T08:23:20.067Z,5
2016-04-02T08:23:49.631Z,5
2016-04-02T08:24:48.806Z,5
2016-04-02T08:25:48.652Z,5
2016-04-02T08:26:48.733Z,5
2016-04-02T08:27:48.563Z,5
2016-04-02T08:28:48.847Z,5
2016-04-02T08:29:48.538Z,5
2016-04-02T08:30:48.775Z,5
2016-04-02T08:31:48.763Z,5
2016-04-02T08:32:48.468Z,5
2016-04-02T08:33:48.424Z,5
2016-04-02T08:34:48.691Z,5
2016-04-02T08:35:48.460Z,5
2016-04-02T08:36:48.431Z,5
2016-04-02T08:37:48.293Z,5
2016-04-02T08:38:48.359Z,5
2016-04-02T08:39:48.299Z,5
2016-04-02T08:40:48.473Z,5
2016-04-02T08:41:48.165Z,5
2016-04-02T08:42:48.307Z,5
2016-04-02T08:43:48.154Z,5
2016-04-02T08:44:48.359Z,5
2016-04-02T08:45:47.471Z,5
2016-04-02T08:46:48.396Z,5
2016-04-02T08:47:48.134Z,5
2016-04-02T08:48:48.870Z,5
2016-04-02T08:49:49.326Z,5
2016-04-02T08:50:48.094Z,5
2016-04-02T08:51:48.003Z,5
2016-04-02T08:52:47.959Z,5
2016-04-02T08:54:02.508Z,5
2016-04-02T08:55:02.355Z,5
2016-04-02T08:56:01.780Z,5
2016-04-02T08:57:16.205Z,5
2016-04-02T08:57:58.036Z,5
2016-04-02T08:58:47.835Z,5
2016-04-02T08:59:47.838Z,5
2016-04-02T09:00:47.777Z,5
2016-04-02T09:01:48.186Z,5
2016-04-02T09:03:01.548Z,5
2016-04-02T09:03:48.052Z,5
2016-04-02T09:04:47.710Z,5
2016-04-02T09:05:47.916Z,5
2016-04-02T09:06:47.606Z,5
2016-04-02T09:07:47.577Z,5
2016-04-02T09:08:47.532Z,5
2016-04-02T09:09:48.020Z,5
2016-04-02T09:10:47.570Z,5
2016-04-02T09:11:47.823Z,5
2016-04-02T09:12:47.544Z,5
2016-04-02T09:13:47.500Z,5
2016-04-02T09:14:47.456Z,5
2016-04-02T09:15:47.834Z,5
2016-04-02T09:16:47.415Z,5
2016-04-02T09:17:47.387Z,5
2016-04-02T09:18:47.435Z,5
2016-04-02T09:19:47.267Z,5
2016-04-02T09:20:47.347Z,5
2016-04-02T09:21:47.537Z,5
2016-04-02T09:22:47.274Z,5
2016-04-02T09:23:47.277Z,5
2016-04-02T09:24:47.233Z,5
2016-04-02T09:25:47.142Z,5
2016-04-02T09:26:47.239Z,5
2016-04-02T09:27:47.475Z,5
2016-04-02T09:28:47.134Z,5
2016-04-02T09:29:47.027Z,5
2016-04-02T09:30:47.139Z,5
2016-04-02T09:31:47.251Z,10
2016-04-02T09:32:47.019Z,10
2016-04-02T09:33:47.335Z,10
2016-04-02T09:34:47.166Z,10
2016-04-02T09:36:00.778Z,10
2016-04-02T09:36:46.999Z,10
2016-04-02T09:37:47.049Z,10
2016-04-02T09:38:46.848Z,10
2016-04-02T09:39:47.211Z,10
2016-04-02T09:40:46.838Z,10
2016-04-02T09:41:46.779Z,10
2016-04-02T09:42:46.812Z,10
2016-04-02T09:43:46.752Z,10
2016-04-02T09:44:46.709Z,10
2016-04-02T09:45:46.976Z,10
2016-04-02T09:46:47.557Z,10
2016-04-02T09:47:46.700Z,10
2016-04-02T09:48:46.845Z,10
2016-04-02T09:49:46.409Z,10
2016-04-02T09:50:46.615Z,10
2016-04-02T09:51:46.836Z,10
2016-04-02T09:52:46.558Z,10
2016-04-02T09:53:47.154Z,10
2016-04-02T09:54:46.485Z,10
2016-04-02T09:55:46.425Z,10
2016-04-02T09:56:46.459Z,10
2016-04-02T09:57:46.853Z,10
2016-04-02T09:58:46.418Z,10
2016-04-02T10:00:46.455Z,10
2016-04-02T10:01:46.644Z,10
2016-04-02T10:02:46.553Z,10
2016-04-02T10:03:46.572Z,10
2016-04-02T10:04:46.403Z,10
2016-04-02T10:05:46.375Z,10
2016-04-02T10:06:46.518Z,10
2016-04-02T10:07:46.427Z,10
2016-04-02T10:08:46.319Z,10
2016-04-02T10:09:49.916Z,10
2016-04-02T10:10:46.153Z,10
2016-04-02T10:11:46.140Z,10
2016-04-02T10:12:46.377Z,10
2016-04-02T10:13:46.380Z,10
2016-04-02T10:14:46.071Z,10
2016-04-02T10:15:45.495Z,10
2016-04-02T10:16:45.998Z,10
2016-04-02T10:17:46.343Z,10
2016-04-02T10:18:46.550Z,10
2016-04-02T10:19:45.989Z,10
2016-04-02T10:20:46.508Z,10
2016-04-02T10:21:46.401Z,10
2016-04-02T10:22:45.951Z,10
2016-04-02T10:23:45.845Z,10
2016-04-02T10:24:46.081Z,10
2016-04-02T10:25:45.928Z,10
2016-04-02T10:26:46.055Z,10
2016-04-02T10:27:46.183Z,10
2016-04-02T10:28:45.748Z,10
2016-04-02T10:29:45.689Z,10
2016-04-02T10:30:46.114Z,15
2016-04-02T10:31:45.710Z,15
2016-04-02T10:32:45.775Z,15
2016-04-02T10:33:45.980Z,15
2016-04-02T10:34:45.593Z,15
2016-04-02T10:35:45.610Z,15
2016-04-02T10:36:44.801Z,15
2016-04-02T10:37:45.585Z,15
2016-04-02T10:38:44.650Z,15
2016-04-02T10:40:00.169Z,15
2016-04-02T10:40:45.921Z,15
2016-04-02T10:41:45.674Z,10
2016-04-02T10:42:45.411Z,10
2016-04-02T10:43:59.179Z,10
2016-04-02T10:44:45.323Z,10
2016-04-02T10:45:45.903Z,10
2016-04-02T10:46:44.484Z,10
2016-04-02T10:47:45.331Z,10
2016-04-02T10:48:45.209Z,10
2016-04-02T10:49:45.305Z,10
2016-04-02T10:50:59.042Z,10
2016-04-02T10:51:45.670Z,10
2016-04-02T10:52:45.203Z,15
2016-04-02T10:53:45.145Z,15
2016-04-02T10:54:45.068Z,10
2016-04-02T10:55:45.056Z,15
2016-04-02T10:56:44.934Z,15
2016-04-02T10:57:45.623Z,15
2016-04-02T10:58:45.048Z,15
2016-04-02T10:59:45.253Z,15
2016-04-02T11:00:45.225Z,15
2016-04-02T11:01:44.993Z,15
2016-04-02T11:02:44.986Z,15
2016-04-02T11:03:45.289Z,15
2016-04-02T11:04:44.937Z,15
2016-04-02T11:05:45.445Z,15
2016-04-02T11:06:44.827Z,15
2016-04-02T11:07:44.762Z,15
2016-04-02T11:08:44.761Z,15
2016-04-02T11:09:46.228Z,15
2016-04-02T11:10:45.070Z,15
2016-04-02T11:11:45.225Z,15
2016-04-02T11:12:44.695Z,15
2016-04-02T11:13:44.586Z,15
2016-04-02T11:14:44.587Z,15
2016-04-02T11:15:44.854Z,15
2016-04-02T11:16:44.527Z,15
2016-04-02T11:17:58.389Z,15
2016-04-02T11:18:44.533Z,15
2016-04-02T11:19:58.316Z,15
2016-04-02T11:20:44.599Z,15
2016-04-02T11:21:44.711Z,15
2016-04-02T11:22:44.589Z,15
2016-04-02T11:23:44.435Z,15
2016-04-02T11:24:44.376Z,20
2016-04-02T11:25:44.457Z,20
2016-04-02T11:26:44.490Z,20
2016-04-02T11:27:44.618Z,20
2016-04-02T11:28:44.308Z,20
2016-04-02T11:29:43.530Z,20
2016-04-02T11:30:44.408Z,20
2016-04-02T11:31:44.566Z,20
2016-04-02T11:32:44.334Z,20
2016-04-02T11:33:44.744Z,20
2016-04-02T11:34:44.590Z,20
2016-04-02T11:35:44.328Z,20
2016-04-02T11:36:47.220Z,20
2016-04-02T11:37:44.427Z,20
2016-04-02T11:38:44.741Z,20
2016-04-02T11:39:44.916Z,20
2016-04-02T11:40:45.449Z,20
2016-04-02T11:42:44.815Z,25
2016-04-02T11:43:43.988Z,60
2016-04-02T11:44:44.086Z,50
2016-04-02T11:45:44.901Z,35
2016-04-02T11:46:44.138Z,30
2016-04-02T11:47:44.203Z,35
2016-04-02T11:48:43.846Z,35
2016-04-02T11:49:44.380Z,55
2016-04-02T11:50:43.977Z,55
2016-04-02T11:51:44.699Z,40
2016-04-02T11:52:47.904Z,35
2016-04-02T11:53:45.032Z,35
2016-04-02T11:54:44.253Z,40
2016-04-02T11:55:44.537Z,35
2016-04-02T11:56:46.539Z,30
2016-04-02T11:59:47.641Z,50
2016-04-02T12:00:45.614Z,25
2016-04-02T12:02:01.287Z,25
2016-04-02T12:02:50.775Z,25
2016-04-02T12:03:44.699Z,25
2016-04-02T12:04:44.374Z,20
2016-04-02T12:05:44.752Z,25
2016-04-02T12:06:48.097Z,25
2016-04-02T12:07:43.975Z,25
2016-04-02T12:08:44.868Z,25
2016-04-02T12:09:45.777Z,35
2016-04-02T12:10:43.733Z,35
2016-04-02T12:12:47.396Z,65
2016-04-02T12:13:46.163Z,50
2016-04-02T12:14:44.697Z,45
2016-04-02T12:15:44.763Z,45
2016-04-02T12:16:47.765Z,35
2016-04-02T12:17:44.050Z,30
2016-04-02T12:18:44.630Z,30
2016-04-02T12:19:45.227Z,30
2016-04-02T12:20:45.651Z,30
2016-04-02T12:21:48.638Z,30
2016-04-02T12:22:45.016Z,25
2016-04-02T12:23:45.565Z,25
2016-04-02T12:24:43.084Z,20
2016-04-02T12:25:47.289Z,20
2016-04-02T12:26:43.621Z,20
2016-04-02T12:27:43.639Z,20
2016-04-02T12:28:43.485Z,20
2016-04-02T12:29:43.442Z,20
2016-04-02T12:30:57.100Z,25
2016-04-02T12:32:43.167Z,30
2016-04-02T12:33:43.452Z,35
2016-04-02T12:34:42.407Z,50
2016-04-02T12:35:43.425Z,45
2016-04-02T12:36:43.460Z,40
2016-04-02T12:37:43.009Z,30
2016-04-02T12:38:43.153Z,30
2016-04-02T12:39:43.405Z,35
2016-04-02T12:40:43.049Z,40
2016-04-02T12:41:42.832Z,40
2016-04-02T12:42:42.727Z,40
2016-04-02T12:43:43.119Z,40
2016-04-02T12:44:42.763Z,40
2016-04-02T12:45:43.125Z,40
2016-04-02T12:46:43.658Z,75
2016-04-02T12:47:42.630Z,90
2016-04-02T12:48:42.618Z,60
2016-04-02T12:49:42.666Z,55
2016-04-02T12:50:43.341Z,50
2016-04-02T12:51:44.562Z,50
2016-04-02T12:52:42.785Z,55
2016-04-02T12:53:42.849Z,60
2016-04-02T12:54:42.524Z,60
2016-04-02T12:55:43.027Z,50
2016-04-02T12:56:42.514Z,50
2016-04-02T12:57:43.438Z,65
2016-04-02T12:58:42.597Z,85
2016-04-02T12:59:42.897Z,85
2016-04-02T13:00:56.367Z,55
2016-04-02T13:01:42.761Z,50
2016-04-02T13:02:42.311Z,50
2016-04-02T13:03:42.845Z,50
2016-04-02T13:04:42.411Z,65
2016-04-02T13:05:42.319Z,65
2016-04-02T13:06:42.322Z,55
2016-04-02T13:07:42.355Z,40
2016-04-02T13:08:42.389Z,40
2016-04-02T13:09:42.970Z,40
2016-04-02T13:10:42.473Z,45
2016-04-02T13:11:42.180Z,40
2016-04-02T13:12:41.744Z,40
2016-04-02T13:13:42.278Z,45
2016-04-02T13:14:41.437Z,50
2016-04-02T13:15:42.565Z,45
2016-04-02T13:16:42.082Z,45
2016-04-02T13:17:42.210Z,50
2016-04-02T13:18:42.088Z,50
2016-04-02T13:19:41.294Z,45
2016-04-02T13:20:41.594Z,40
2016-04-02T13:21:42.362Z,40
2016-04-02T13:22:42.302Z,45
2016-04-02T13:23:41.914Z,45
2016-04-02T13:24:42.042Z,45
2016-04-02T13:25:41.903Z,55
2016-04-02T13:26:42.656Z,55
2016-04-02T13:27:42.175Z,50
2016-04-02T13:28:42.021Z,40
2016-04-02T13:29:41.681Z,35
2016-04-02T13:30:41.777Z,35
2016-04-02T13:31:41.373Z,35
2016-04-02T13:32:42.001Z,35
2016-04-02T13:33:42.113Z,40
2016-04-02T13:34:41.834Z,40
2016-04-02T13:35:42.056Z,45
2016-04-02T13:36:42.372Z,55
2016-04-02T13:37:41.656Z,50
2016-04-02T13:38:42.361Z,50
2016-04-02T13:39:41.958Z,45
2016-04-02T13:40:41.710Z,40
2016-04-02T13:41:41.681Z,45
2016-04-02T13:42:41.637Z,45
2016-04-02T13:43:41.499Z,45
2016-04-02T13:44:41.627Z,55
2016-04-02T13:45:41.036Z,55
2016-04-02T13:46:41.602Z,60
2016-04-02T13:47:41.588Z,70
2016-04-02T13:49:41.671Z,50
2016-04-02T13:50:41.409Z,55
2016-04-02T13:51:55.973Z,60
2016-04-02T13:52:41.695Z,65
2016-04-02T13:53:41.542Z,85
2016-04-02T13:54:41.935Z,80
2016-04-02T13:55:41.407Z,45
2016-04-02T13:56:42.050Z,40
2016-04-02T13:58:41.367Z,45
2016-04-02T13:59:41.261Z,55
2016-04-02T14:00:41.373Z,70
2016-04-02T14:01:41.248Z,75
2016-04-02T14:02:41.109Z,70
2016-04-02T14:03:42.330Z,80
2016-04-02T14:04:41.407Z,80
2016-04-02T14:05:41.117Z,75
2016-04-02T14:06:41.525Z,90
2016-04-02T14:07:41.387Z,75
2016-04-02T14:08:41.374Z,80
2016-04-02T14:09:41.533Z,70
2016-04-02T14:10:41.426Z,55
2016-04-02T14:11:41.086Z,55
2016-04-02T14:12:41.198Z,60
2016-04-02T14:13:43.184Z,65
2016-04-02T14:14:41.109Z,70
2016-04-02T14:15:41.049Z,65
2016-04-02T14:16:41.146Z,65
2016-04-02T14:17:41.148Z,45
2016-04-02T14:18:40.932Z,40
2016-04-02T14:19:41.325Z,40
2016-04-02T14:20:44.032Z,40
2016-04-02T14:21:41.300Z,40
2016-04-02T14:22:54.630Z,45
2016-04-02T14:23:40.680Z,50
2016-04-02T14:24:40.917Z,50
2016-04-02T14:25:54.732Z,45
2016-04-02T14:26:40.875Z,45
2016-04-02T14:27:44.143Z,40
2016-04-02T14:28:40.787Z,40
2016-04-02T14:29:40.993Z,40
2016-04-02T14:31:41.015Z,40
2016-04-02T14:32:40.642Z,40
2016-04-02T14:33:41.082Z,50
2016-04-02T14:34:40.694Z,50
2016-04-02T14:35:40.868Z,10
2016-04-02T14:36:40.778Z,25
2016-04-02T14:37:40.734Z,85
2016-04-02T14:38:40.971Z,145
2016-04-02T14:39:40.801Z,135
2016-04-02T14:40:40.476Z,125
2016-04-02T14:41:40.525Z,115
2016-04-02T14:42:40.434Z,115
2016-04-02T14:43:40.952Z,95
2016-04-02T14:44:40.596Z,80